sensor_id;sensor_type;location;lat;lon;timestamp;P1;durP1;ratioP1;P2;durP2;ratioP2
67442;SDS011;54311;51.726;5.154;2024-01-15T00:00:01;6.45;;;5.82;;
67442;SDS011;54311;51.726;5.154;2024-01-15T00:02:28;5.93;;;5.50;;
67442;SDS011;54311;51.726;5.154;2024-01-15T00:04:53;10.80;;;5.90;;
67442;SDS011;54311;51.726;5.154;2024-01-15T00:07:19;5.05;;;4.75;;
67442;SDS011;54311;51.726;5.154;2024-01-15T00:09:44;7.53;;;5.65;;
67442;SDS011;54311;51.726;5.154;2024-01-15T00:12:10;5.82;;;5.25;;
67442;SDS011;54311;51.726;5.154;2024-01-15T00:14:35;8.77;;;6.28;;
67442;SDS011;54311;51.726;5.154;2024-01-15T00:17:00;4.43;;;4.13;;
67442;SDS011;54311;51.726;5.154;2024-01-15T00:19:26;9.57;;;5.10;;
67442;SDS011;54311;51.726;5.154;2024-01-15T00:21:52;8.60;;;4.93;;
67442;SDS011;54311;51.726;5.154;2024-01-15T00:24:17;7.82;;;5.80;;
67442;SDS011;54311;51.726;5.154;2024-01-15T00:26:43;6.35;;;5.10;;
67442;SDS011;54311;51.726;5.154;2024-01-15T00:29:08;14.30;;;5.70;;
67442;SDS011;54311;51.726;5.154;2024-01-15T00:31:34;7.47;;;5.15;;
67442;SDS011;54311;51.726;5.154;2024-01-15T00:33:59;5.78;;;5.30;;
67442;SDS011;54311;51.726;5.154;2024-01-15T00:36:25;5.72;;;5.38;;
67442;SDS011;54311;51.726;5.154;2024-01-15T00:38:50;9.85;;;4.85;;
67442;SDS011;54311;51.726;5.154;2024-01-15T00:41:16;9.38;;;6.20;;
67442;SDS011;54311;51.726;5.154;2024-01-15T00:43:42;5.88;;;5.38;;
67442;SDS011;54311;51.726;5.154;2024-01-15T00:46:07;7.90;;;5.30;;
67442;SDS011;54311;51.726;5.154;2024-01-15T00:48:33;10.05;;;5.38;;
67442;SDS011;54311;51.726;5.154;2024-01-15T00:50:58;10.50;;;5.65;;
67442;SDS011;54311;51.726;5.154;2024-01-15T00:53:23;6.95;;;5.93;;
67442;SDS011;54311;51.726;5.154;2024-01-15T00:55:49;6.32;;;5.28;;
67442;SDS011;54311;51.726;5.154;2024-01-15T00:58:14;8.63;;;5.55;;
67442;SDS011;54311;51.726;5.154;2024-01-15T01:00:40;5.95;;;5.32;;
67442;SDS011;54311;51.726;5.154;2024-01-15T01:03:06;14.07;;;6.43;;
67442;SDS011;54311;51.726;5.154;2024-01-15T01:05:31;7.45;;;5.90;;
67442;SDS011;54311;51.726;5.154;2024-01-15T01:07:58;10.68;;;5.88;;
67442;SDS011;54311;51.726;5.154;2024-01-15T01:10:23;10.02;;;5.45;;
67442;SDS011;54311;51.726;5.154;2024-01-15T01:12:48;6.40;;;5.88;;
67442;SDS011;54311;51.726;5.154;2024-01-15T01:15:13;8.27;;;6.20;;
67442;SDS011;54311;51.726;5.154;2024-01-15T01:17:39;8.10;;;5.53;;
67442;SDS011;54311;51.726;5.154;2024-01-15T01:20:04;12.43;;;5.88;;
67442;SDS011;54311;51.726;5.154;2024-01-15T01:22:33;6.25;;;5.78;;
67442;SDS011;54311;51.726;5.154;2024-01-15T01:24:58;8.73;;;6.10;;
67442;SDS011;54311;51.726;5.154;2024-01-15T01:27:24;8.43;;;6.38;;
67442;SDS011;54311;51.726;5.154;2024-01-15T01:29:49;10.25;;;5.80;;
67442;SDS011;54311;51.726;5.154;2024-01-15T01:32:14;12.75;;;6.90;;
67442;SDS011;54311;51.726;5.154;2024-01-15T01:34:40;12.20;;;6.25;;
67442;SDS011;54311;51.726;5.154;2024-01-15T01:37:09;9.05;;;5.93;;
67442;SDS011;54311;51.726;5.154;2024-01-15T01:39:35;6.93;;;6.20;;
67442;SDS011;54311;51.726;5.154;2024-01-15T01:42:00;10.63;;;5.93;;
67442;SDS011;54311;51.726;5.154;2024-01-15T01:44:26;11.63;;;6.28;;
67442;SDS011;54311;51.726;5.154;2024-01-15T01:46:51;7.63;;;6.05;;
67442;SDS011;54311;51.726;5.154;2024-01-15T01:49:16;8.02;;;5.57;;
67442;SDS011;54311;51.726;5.154;2024-01-15T01:51:42;8.15;;;6.05;;
67442;SDS011;54311;51.726;5.154;2024-01-15T01:54:07;10.27;;;6.20;;
67442;SDS011;54311;51.726;5.154;2024-01-15T01:56:34;7.65;;;6.03;;
67442;SDS011;54311;51.726;5.154;2024-01-15T01:59:00;7.75;;;5.32;;
67442;SDS011;54311;51.726;5.154;2024-01-15T02:01:26;7.93;;;5.68;;
67442;SDS011;54311;51.726;5.154;2024-01-15T02:03:52;11.30;;;6.20;;
67442;SDS011;54311;51.726;5.154;2024-01-15T02:06:17;7.75;;;5.53;;
67442;SDS011;54311;51.726;5.154;2024-01-15T02:08:43;8.82;;;6.15;;
67442;SDS011;54311;51.726;5.154;2024-01-15T02:11:09;8.27;;;5.43;;
67442;SDS011;54311;51.726;5.154;2024-01-15T02:13:34;9.05;;;5.93;;
67442;SDS011;54311;51.726;5.154;2024-01-15T02:15:59;7.95;;;5.55;;
67442;SDS011;54311;51.726;5.154;2024-01-15T02:18:25;11.23;;;5.68;;
67442;SDS011;54311;51.726;5.154;2024-01-15T02:20:50;12.73;;;5.50;;
67442;SDS011;54311;51.726;5.154;2024-01-15T02:23:15;8.40;;;5.32;;
67442;SDS011;54311;51.726;5.154;2024-01-15T02:25:42;10.07;;;5.82;;
67442;SDS011;54311;51.726;5.154;2024-01-15T02:28:10;9.10;;;6.15;;
67442;SDS011;54311;51.726;5.154;2024-01-15T02:30:39;10.35;;;5.57;;
67442;SDS011;54311;51.726;5.154;2024-01-15T02:33:06;10.68;;;5.47;;
67442;SDS011;54311;51.726;5.154;2024-01-15T02:35:32;12.93;;;6.75;;
67442;SDS011;54311;51.726;5.154;2024-01-15T02:37:58;9.35;;;5.50;;
67442;SDS011;54311;51.726;5.154;2024-01-15T02:40:23;10.82;;;5.70;;
67442;SDS011;54311;51.726;5.154;2024-01-15T02:42:49;6.00;;;5.50;;
67442;SDS011;54311;51.726;5.154;2024-01-15T02:45:14;8.25;;;5.25;;
67442;SDS011;54311;51.726;5.154;2024-01-15T02:47:39;10.50;;;5.50;;
67442;SDS011;54311;51.726;5.154;2024-01-15T02:50:05;12.25;;;5.43;;
67442;SDS011;54311;51.726;5.154;2024-01-15T02:52:30;10.55;;;5.55;;
67442;SDS011;54311;51.726;5.154;2024-01-15T02:54:56;7.88;;;5.80;;
67442;SDS011;54311;51.726;5.154;2024-01-15T02:57:21;8.93;;;5.55;;
67442;SDS011;54311;51.726;5.154;2024-01-15T02:59:46;8.40;;;5.65;;
67442;SDS011;54311;51.726;5.154;2024-01-15T03:02:12;12.75;;;5.55;;
67442;SDS011;54311;51.726;5.154;2024-01-15T03:04:37;8.75;;;5.80;;
67442;SDS011;54311;51.726;5.154;2024-01-15T03:07:02;14.93;;;6.13;;
67442;SDS011;54311;51.726;5.154;2024-01-15T03:09:28;9.38;;;5.15;;
67442;SDS011;54311;51.726;5.154;2024-01-15T03:11:53;9.90;;;5.43;;
67442;SDS011;54311;51.726;5.154;2024-01-15T03:14:18;12.52;;;6.10;;
67442;SDS011;54311;51.726;5.154;2024-01-15T03:16:45;8.57;;;6.25;;
67442;SDS011;54311;51.726;5.154;2024-01-15T03:19:10;13.25;;;5.70;;
67442;SDS011;54311;51.726;5.154;2024-01-15T03:21:36;12.18;;;5.68;;
67442;SDS011;54311;51.726;5.154;2024-01-15T03:24:01;7.85;;;5.30;;
67442;SDS011;54311;51.726;5.154;2024-01-15T03:26:26;7.40;;;5.05;;
67442;SDS011;54311;51.726;5.154;2024-01-15T03:28:52;7.03;;;4.88;;
67442;SDS011;54311;51.726;5.154;2024-01-15T03:31:17;5.93;;;4.80;;
67442;SDS011;54311;51.726;5.154;2024-01-15T03:33:42;5.70;;;5.18;;
67442;SDS011;54311;51.726;5.154;2024-01-15T03:36:08;6.93;;;4.32;;
67442;SDS011;54311;51.726;5.154;2024-01-15T03:38:33;7.82;;;5.38;;
67442;SDS011;54311;51.726;5.154;2024-01-15T03:40:59;8.98;;;5.25;;
67442;SDS011;54311;51.726;5.154;2024-01-15T03:43:24;9.85;;;6.07;;
67442;SDS011;54311;51.726;5.154;2024-01-15T03:45:51;10.80;;;5.78;;
67442;SDS011;54311;51.726;5.154;2024-01-15T03:48:16;7.30;;;5.57;;
67442;SDS011;54311;51.726;5.154;2024-01-15T03:50:42;12.05;;;5.93;;
67442;SDS011;54311;51.726;5.154;2024-01-15T03:53:08;6.18;;;5.68;;
67442;SDS011;54311;51.726;5.154;2024-01-15T03:55:34;8.23;;;5.57;;
67442;SDS011;54311;51.726;5.154;2024-01-15T03:57:59;10.43;;;5.85;;
67442;SDS011;54311;51.726;5.154;2024-01-15T04:00:24;7.30;;;5.85;;
67442;SDS011;54311;51.726;5.154;2024-01-15T04:02:50;15.30;;;6.75;;
67442;SDS011;54311;51.726;5.154;2024-01-15T04:05:15;10.30;;;6.50;;
67442;SDS011;54311;51.726;5.154;2024-01-15T04:07:40;12.07;;;5.85;;
67442;SDS011;54311;51.726;5.154;2024-01-15T04:10:06;9.18;;;6.43;;
67442;SDS011;54311;51.726;5.154;2024-01-15T04:12:31;13.38;;;6.28;;
67442;SDS011;54311;51.726;5.154;2024-01-15T04:14:57;10.50;;;6.13;;
67442;SDS011;54311;51.726;5.154;2024-01-15T04:17:22;8.15;;;5.68;;
67442;SDS011;54311;51.726;5.154;2024-01-15T04:19:47;5.18;;;4.75;;
67442;SDS011;54311;51.726;5.154;2024-01-15T04:22:13;6.10;;;4.40;;
67442;SDS011;54311;51.726;5.154;2024-01-15T04:24:38;6.47;;;5.00;;
67442;SDS011;54311;51.726;5.154;2024-01-15T04:27:04;9.55;;;5.45;;
67442;SDS011;54311;51.726;5.154;2024-01-15T04:29:29;5.30;;;4.90;;
67442;SDS011;54311;51.726;5.154;2024-01-15T04:31:55;5.63;;;4.90;;
67442;SDS011;54311;51.726;5.154;2024-01-15T04:34:20;5.38;;;5.18;;
67442;SDS011;54311;51.726;5.154;2024-01-15T04:36:45;4.80;;;4.45;;
67442;SDS011;54311;51.726;5.154;2024-01-15T04:39:11;4.80;;;4.50;;
67442;SDS011;54311;51.726;5.154;2024-01-15T04:41:36;6.20;;;5.63;;
67442;SDS011;54311;51.726;5.154;2024-01-15T04:44:02;6.22;;;5.72;;
67442;SDS011;54311;51.726;5.154;2024-01-15T04:46:27;6.50;;;5.00;;
67442;SDS011;54311;51.726;5.154;2024-01-15T04:48:53;4.45;;;4.05;;
67442;SDS011;54311;51.726;5.154;2024-01-15T04:51:18;5.10;;;4.70;;
67442;SDS011;54311;51.726;5.154;2024-01-15T04:53:44;4.93;;;4.47;;
67442;SDS011;54311;51.726;5.154;2024-01-15T04:56:09;5.63;;;5.10;;
67442;SDS011;54311;51.726;5.154;2024-01-15T04:58:34;6.72;;;4.80;;
67442;SDS011;54311;51.726;5.154;2024-01-15T05:01:00;5.05;;;4.40;;
67442;SDS011;54311;51.726;5.154;2024-01-15T05:03:25;5.05;;;4.65;;
67442;SDS011;54311;51.726;5.154;2024-01-15T05:05:50;5.43;;;5.18;;
67442;SDS011;54311;51.726;5.154;2024-01-15T05:08:16;4.40;;;4.20;;
67442;SDS011;54311;51.726;5.154;2024-01-15T05:10:41;5.20;;;4.75;;
67442;SDS011;54311;51.726;5.154;2024-01-15T05:13:06;5.38;;;4.30;;
67442;SDS011;54311;51.726;5.154;2024-01-15T05:15:32;5.68;;;5.18;;
67442;SDS011;54311;51.726;5.154;2024-01-15T05:17:57;5.78;;;4.75;;
67442;SDS011;54311;51.726;5.154;2024-01-15T05:20:22;5.93;;;5.40;;
67442;SDS011;54311;51.726;5.154;2024-01-15T05:22:48;5.30;;;4.90;;
67442;SDS011;54311;51.726;5.154;2024-01-15T05:25:13;5.45;;;5.05;;
67442;SDS011;54311;51.726;5.154;2024-01-15T05:27:38;5.18;;;4.88;;
67442;SDS011;54311;51.726;5.154;2024-01-15T05:30:04;6.10;;;5.38;;
67442;SDS011;54311;51.726;5.154;2024-01-15T05:32:30;5.50;;;4.85;;
67442;SDS011;54311;51.726;5.154;2024-01-15T05:34:55;4.80;;;4.40;;
67442;SDS011;54311;51.726;5.154;2024-01-15T05:37:20;5.55;;;5.07;;
67442;SDS011;54311;51.726;5.154;2024-01-15T05:39:46;5.00;;;4.80;;
67442;SDS011;54311;51.726;5.154;2024-01-15T05:42:11;4.85;;;4.65;;
67442;SDS011;54311;51.726;5.154;2024-01-15T05:44:36;5.68;;;5.15;;
67442;SDS011;54311;51.726;5.154;2024-01-15T05:47:02;4.97;;;4.57;;
67442;SDS011;54311;51.726;5.154;2024-01-15T05:49:29;5.60;;;5.10;;
67442;SDS011;54311;51.726;5.154;2024-01-15T05:51:54;4.40;;;4.30;;
67442;SDS011;54311;51.726;5.154;2024-01-15T05:54:20;5.20;;;4.82;;
67442;SDS011;54311;51.726;5.154;2024-01-15T05:56:45;4.78;;;4.43;;
67442;SDS011;54311;51.726;5.154;2024-01-15T05:59:10;4.68;;;4.38;;
67442;SDS011;54311;51.726;5.154;2024-01-15T06:01:36;4.97;;;4.57;;
67442;SDS011;54311;51.726;5.154;2024-01-15T06:04:01;5.30;;;4.78;;
67442;SDS011;54311;51.726;5.154;2024-01-15T06:06:27;4.55;;;4.45;;
67442;SDS011;54311;51.726;5.154;2024-01-15T06:08:52;4.78;;;4.57;;
67442;SDS011;54311;51.726;5.154;2024-01-15T06:11:18;5.05;;;4.82;;
67442;SDS011;54311;51.726;5.154;2024-01-15T06:13:43;5.03;;;4.80;;
67442;SDS011;54311;51.726;5.154;2024-01-15T06:16:13;5.35;;;5.05;;
67442;SDS011;54311;51.726;5.154;2024-01-15T06:18:42;5.32;;;5.15;;
67442;SDS011;54311;51.726;5.154;2024-01-15T06:21:07;5.28;;;5.07;;
67442;SDS011;54311;51.726;5.154;2024-01-15T06:23:35;5.90;;;5.18;;
67442;SDS011;54311;51.726;5.154;2024-01-15T06:26:00;5.50;;;5.22;;
67442;SDS011;54311;51.726;5.154;2024-01-15T06:28:28;5.82;;;5.53;;
67442;SDS011;54311;51.726;5.154;2024-01-15T06:30:54;5.32;;;5.03;;
67442;SDS011;54311;51.726;5.154;2024-01-15T06:33:19;6.38;;;6.05;;
67442;SDS011;54311;51.726;5.154;2024-01-15T06:35:44;5.57;;;5.38;;
67442;SDS011;54311;51.726;5.154;2024-01-15T06:38:10;7.00;;;6.50;;
67442;SDS011;54311;51.726;5.154;2024-01-15T06:40:35;7.25;;;6.93;;
67442;SDS011;54311;51.726;5.154;2024-01-15T06:43:00;6.65;;;6.28;;
67442;SDS011;54311;51.726;5.154;2024-01-15T06:45:26;6.97;;;6.38;;
67442;SDS011;54311;51.726;5.154;2024-01-15T06:47:51;7.40;;;6.80;;
67442;SDS011;54311;51.726;5.154;2024-01-15T06:50:16;6.45;;;6.15;;
67442;SDS011;54311;51.726;5.154;2024-01-15T06:52:42;7.43;;;6.75;;
67442;SDS011;54311;51.726;5.154;2024-01-15T06:55:07;8.13;;;7.15;;
67442;SDS011;54311;51.726;5.154;2024-01-15T06:57:33;7.18;;;6.68;;
67442;SDS011;54311;51.726;5.154;2024-01-15T06:59:58;7.03;;;6.70;;
67442;SDS011;54311;51.726;5.154;2024-01-15T07:02:24;6.47;;;6.28;;
67442;SDS011;54311;51.726;5.154;2024-01-15T07:04:49;7.38;;;7.07;;
67442;SDS011;54311;51.726;5.154;2024-01-15T07:07:14;7.55;;;7.03;;
67442;SDS011;54311;51.726;5.154;2024-01-15T07:09:40;8.05;;;7.60;;
67442;SDS011;54311;51.726;5.154;2024-01-15T07:12:06;7.70;;;7.20;;
67442;SDS011;54311;51.726;5.154;2024-01-15T07:14:31;6.70;;;6.38;;
67442;SDS011;54311;51.726;5.154;2024-01-15T07:16:57;9.00;;;6.20;;
67442;SDS011;54311;51.726;5.154;2024-01-15T07:19:22;7.00;;;6.60;;
67442;SDS011;54311;51.726;5.154;2024-01-15T07:21:47;6.70;;;6.40;;
67442;SDS011;54311;51.726;5.154;2024-01-15T07:24:13;7.00;;;6.60;;
67442;SDS011;54311;51.726;5.154;2024-01-15T07:26:38;6.88;;;6.57;;
67442;SDS011;54311;51.726;5.154;2024-01-15T07:29:04;7.30;;;6.65;;
67442;SDS011;54311;51.726;5.154;2024-01-15T07:31:29;5.88;;;5.60;;
67442;SDS011;54311;51.726;5.154;2024-01-15T07:33:55;6.38;;;6.07;;
67442;SDS011;54311;51.726;5.154;2024-01-15T07:36:20;6.43;;;6.03;;
67442;SDS011;54311;51.726;5.154;2024-01-15T07:38:45;6.15;;;5.85;;
67442;SDS011;54311;51.726;5.154;2024-01-15T07:41:12;6.82;;;6.40;;
67442;SDS011;54311;51.726;5.154;2024-01-15T07:43:38;5.95;;;5.75;;
67442;SDS011;54311;51.726;5.154;2024-01-15T07:46:04;6.03;;;5.75;;
67442;SDS011;54311;51.726;5.154;2024-01-15T07:48:29;6.32;;;6.10;;
67442;SDS011;54311;51.726;5.154;2024-01-15T07:50:55;6.15;;;5.60;;
67442;SDS011;54311;51.726;5.154;2024-01-15T07:53:20;5.63;;;5.22;;
67442;SDS011;54311;51.726;5.154;2024-01-15T07:55:45;6.13;;;5.93;;
67442;SDS011;54311;51.726;5.154;2024-01-15T07:58:11;6.18;;;5.80;;
67442;SDS011;54311;51.726;5.154;2024-01-15T08:00:36;6.28;;;6.05;;
67442;SDS011;54311;51.726;5.154;2024-01-15T08:03:02;5.85;;;5.65;;
67442;SDS011;54311;51.726;5.154;2024-01-15T08:05:27;6.53;;;6.07;;
67442;SDS011;54311;51.726;5.154;2024-01-15T08:07:53;7.05;;;6.57;;
67442;SDS011;54311;51.726;5.154;2024-01-15T08:10:18;6.10;;;5.80;;
67442;SDS011;54311;51.726;5.154;2024-01-15T08:12:44;6.15;;;5.65;;
67442;SDS011;54311;51.726;5.154;2024-01-15T08:15:09;6.40;;;6.07;;
67442;SDS011;54311;51.726;5.154;2024-01-15T08:17:35;6.47;;;6.07;;
67442;SDS011;54311;51.726;5.154;2024-01-15T08:20:00;6.13;;;5.70;;
67442;SDS011;54311;51.726;5.154;2024-01-15T08:22:26;6.78;;;6.28;;
67442;SDS011;54311;51.726;5.154;2024-01-15T08:24:51;7.85;;;7.25;;
67442;SDS011;54311;51.726;5.154;2024-01-15T08:27:17;7.72;;;7.15;;
67442;SDS011;54311;51.726;5.154;2024-01-15T08:29:42;8.35;;;7.65;;
67442;SDS011;54311;51.726;5.154;2024-01-15T08:32:07;9.25;;;8.73;;
67442;SDS011;54311;51.726;5.154;2024-01-15T08:34:39;9.13;;;8.52;;
67442;SDS011;54311;51.726;5.154;2024-01-15T08:37:04;9.07;;;8.48;;
67442;SDS011;54311;51.726;5.154;2024-01-15T08:39:29;7.72;;;7.22;;
67442;SDS011;54311;51.726;5.154;2024-01-15T08:41:56;8.32;;;7.80;;
67442;SDS011;54311;51.726;5.154;2024-01-15T08:44:21;7.63;;;7.13;;
67442;SDS011;54311;51.726;5.154;2024-01-15T08:46:46;7.70;;;7.10;;
67442;SDS011;54311;51.726;5.154;2024-01-15T08:49:12;7.57;;;7.10;;
67442;SDS011;54311;51.726;5.154;2024-01-15T08:51:37;6.70;;;6.28;;
67442;SDS011;54311;51.726;5.154;2024-01-15T08:54:04;7.40;;;6.72;;
67442;SDS011;54311;51.726;5.154;2024-01-15T08:56:29;6.60;;;5.75;;
67442;SDS011;54311;51.726;5.154;2024-01-15T08:58:54;6.53;;;6.03;;
67442;SDS011;54311;51.726;5.154;2024-01-15T09:01:20;6.78;;;6.10;;
67442;SDS011;54311;51.726;5.154;2024-01-15T09:03:45;6.90;;;6.40;;
67442;SDS011;54311;51.726;5.154;2024-01-15T09:06:13;6.35;;;5.50;;
67442;SDS011;54311;51.726;5.154;2024-01-15T09:08:38;6.72;;;6.10;;
67442;SDS011;54311;51.726;5.154;2024-01-15T09:11:04;11.70;;;6.00;;
67442;SDS011;54311;51.726;5.154;2024-01-15T09:13:29;6.43;;;5.45;;
67442;SDS011;54311;51.726;5.154;2024-01-15T09:15:54;6.70;;;6.05;;
67442;SDS011;54311;51.726;5.154;2024-01-15T09:18:20;6.72;;;6.07;;
67442;SDS011;54311;51.726;5.154;2024-01-15T09:20:45;9.63;;;6.60;;
67442;SDS011;54311;51.726;5.154;2024-01-15T09:23:10;6.00;;;5.47;;
67442;SDS011;54311;51.726;5.154;2024-01-15T09:25:36;7.00;;;5.43;;
67442;SDS011;54311;51.726;5.154;2024-01-15T09:28:01;8.55;;;5.85;;
67442;SDS011;54311;51.726;5.154;2024-01-15T09:30:27;6.50;;;5.80;;
67442;SDS011;54311;51.726;5.154;2024-01-15T09:32:52;8.38;;;6.05;;
67442;SDS011;54311;51.726;5.154;2024-01-15T09:35:17;9.23;;;5.90;;
67442;SDS011;54311;51.726;5.154;2024-01-15T09:37:43;7.13;;;5.80;;
67442;SDS011;54311;51.726;5.154;2024-01-15T09:40:08;10.70;;;6.50;;
67442;SDS011;54311;51.726;5.154;2024-01-15T09:42:38;10.38;;;6.80;;
67442;SDS011;54311;51.726;5.154;2024-01-15T09:45:04;7.68;;;6.90;;
67442;SDS011;54311;51.726;5.154;2024-01-15T09:47:30;6.47;;;5.35;;
67442;SDS011;54311;51.726;5.154;2024-01-15T09:49:55;7.65;;;5.85;;
67442;SDS011;54311;51.726;5.154;2024-01-15T09:52:23;7.95;;;5.80;;
67442;SDS011;54311;51.726;5.154;2024-01-15T09:54:49;6.80;;;5.40;;
67442;SDS011;54311;51.726;5.154;2024-01-15T09:57:14;6.95;;;6.07;;
67442;SDS011;54311;51.726;5.154;2024-01-15T09:59:40;9.10;;;6.00;;
67442;SDS011;54311;51.726;5.154;2024-01-15T10:02:08;7.05;;;5.55;;
67442;SDS011;54311;51.726;5.154;2024-01-15T10:04:33;9.48;;;5.60;;
67442;SDS011;54311;51.726;5.154;2024-01-15T10:06:59;6.00;;;5.07;;
67442;SDS011;54311;51.726;5.154;2024-01-15T10:09:25;6.13;;;5.65;;
67442;SDS011;54311;51.726;5.154;2024-01-15T10:11:50;6.43;;;5.32;;
67442;SDS011;54311;51.726;5.154;2024-01-15T10:14:16;5.45;;;5.18;;
67442;SDS011;54311;51.726;5.154;2024-01-15T10:16:41;5.95;;;5.43;;
67442;SDS011;54311;51.726;5.154;2024-01-15T10:19:07;5.60;;;4.82;;
67442;SDS011;54311;51.726;5.154;2024-01-15T10:21:36;5.55;;;5.10;;
67442;SDS011;54311;51.726;5.154;2024-01-15T10:24:02;5.75;;;5.22;;
67442;SDS011;54311;51.726;5.154;2024-01-15T10:26:28;5.65;;;5.15;;
67442;SDS011;54311;51.726;5.154;2024-01-15T10:28:53;6.00;;;5.50;;
67442;SDS011;54311;51.726;5.154;2024-01-15T10:31:19;5.75;;;5.32;;
67442;SDS011;54311;51.726;5.154;2024-01-15T10:33:46;5.82;;;5.50;;
67442;SDS011;54311;51.726;5.154;2024-01-15T10:36:12;5.70;;;5.28;;
67442;SDS011;54311;51.726;5.154;2024-01-15T10:38:38;5.75;;;5.30;;
67442;SDS011;54311;51.726;5.154;2024-01-15T10:41:03;5.78;;;5.43;;
67442;SDS011;54311;51.726;5.154;2024-01-15T10:43:29;8.15;;;5.22;;
67442;SDS011;54311;51.726;5.154;2024-01-15T10:45:54;5.63;;;5.07;;
67442;SDS011;54311;51.726;5.154;2024-01-15T10:48:20;6.65;;;5.40;;
67442;SDS011;54311;51.726;5.154;2024-01-15T10:50:45;7.00;;;5.60;;
67442;SDS011;54311;51.726;5.154;2024-01-15T10:53:15;7.07;;;6.28;;
67442;SDS011;54311;51.726;5.154;2024-01-15T10:55:42;6.50;;;4.82;;
67442;SDS011;54311;51.726;5.154;2024-01-15T10:58:08;7.65;;;5.50;;
67442;SDS011;54311;51.726;5.154;2024-01-15T11:00:34;6.55;;;5.60;;
67442;SDS011;54311;51.726;5.154;2024-01-15T11:03:01;13.65;;;6.40;;
67442;SDS011;54311;51.726;5.154;2024-01-15T11:05:27;11.25;;;5.65;;
67442;SDS011;54311;51.726;5.154;2024-01-15T11:07:55;8.27;;;5.75;;
67442;SDS011;54311;51.726;5.154;2024-01-15T11:10:43;11.48;;;5.60;;
67442;SDS011;54311;51.726;5.154;2024-01-15T11:16:01;5.93;;;5.47;;
67442;SDS011;54311;51.726;5.154;2024-01-15T11:18:28;7.57;;;5.20;;
67442;SDS011;54311;51.726;5.154;2024-01-15T11:21:19;5.75;;;5.40;;
67442;SDS011;54311;51.726;5.154;2024-01-15T11:23:48;9.55;;;4.93;;
67442;SDS011;54311;51.726;5.154;2024-01-15T11:26:29;5.43;;;4.93;;
67442;SDS011;54311;51.726;5.154;2024-01-15T11:28:55;6.15;;;5.10;;
67442;SDS011;54311;51.726;5.154;2024-01-15T11:34:05;5.30;;;5.00;;
67442;SDS011;54311;51.726;5.154;2024-01-15T11:41:57;5.63;;;5.30;;
67442;SDS011;54311;51.726;5.154;2024-01-15T11:44:23;5.32;;;4.95;;
67442;SDS011;54311;51.726;5.154;2024-01-15T11:46:58;6.00;;;5.43;;
67442;SDS011;54311;51.726;5.154;2024-01-15T11:52:02;6.07;;;5.60;;
67442;SDS011;54311;51.726;5.154;2024-01-15T11:54:30;6.50;;;6.10;;
67442;SDS011;54311;51.726;5.154;2024-01-15T11:56:59;7.20;;;5.70;;
67442;SDS011;54311;51.726;5.154;2024-01-15T11:59:25;6.72;;;5.30;;
67442;SDS011;54311;51.726;5.154;2024-01-15T12:01:51;6.50;;;6.00;;
67442;SDS011;54311;51.726;5.154;2024-01-15T12:04:16;6.20;;;5.70;;
67442;SDS011;54311;51.726;5.154;2024-01-15T12:06:44;6.00;;;5.60;;
67442;SDS011;54311;51.726;5.154;2024-01-15T12:09:10;5.95;;;5.40;;
67442;SDS011;54311;51.726;5.154;2024-01-15T12:11:35;5.90;;;5.43;;
67442;SDS011;54311;51.726;5.154;2024-01-15T12:14:01;5.90;;;5.60;;
67442;SDS011;54311;51.726;5.154;2024-01-15T12:16:27;6.63;;;6.10;;
67442;SDS011;54311;51.726;5.154;2024-01-15T12:18:52;7.03;;;6.30;;
67442;SDS011;54311;51.726;5.154;2024-01-15T12:21:17;6.13;;;5.72;;
67442;SDS011;54311;51.726;5.154;2024-01-15T12:23:45;7.13;;;6.47;;
67442;SDS011;54311;51.726;5.154;2024-01-15T12:26:11;7.85;;;5.95;;
67442;SDS011;54311;51.726;5.154;2024-01-15T12:28:36;6.05;;;5.47;;
67442;SDS011;54311;51.726;5.154;2024-01-15T12:31:05;5.32;;;4.95;;
67442;SDS011;54311;51.726;5.154;2024-01-15T12:33:30;5.30;;;4.85;;
67442;SDS011;54311;51.726;5.154;2024-01-15T12:35:56;5.70;;;5.40;;
67442;SDS011;54311;51.726;5.154;2024-01-15T12:38:21;6.88;;;6.00;;
67442;SDS011;54311;51.726;5.154;2024-01-15T12:40:46;5.28;;;5.07;;
67442;SDS011;54311;51.726;5.154;2024-01-15T12:43:12;5.30;;;5.07;;
67442;SDS011;54311;51.726;5.154;2024-01-15T12:45:37;5.28;;;4.85;;
67442;SDS011;54311;51.726;5.154;2024-01-15T12:48:03;7.07;;;5.40;;
67442;SDS011;54311;51.726;5.154;2024-01-15T12:50:29;5.32;;;4.75;;
67442;SDS011;54311;51.726;5.154;2024-01-15T12:52:54;7.57;;;5.93;;
67442;SDS011;54311;51.726;5.154;2024-01-15T12:55:20;6.03;;;5.82;;
67442;SDS011;54311;51.726;5.154;2024-01-15T12:57:45;5.97;;;5.57;;
67442;SDS011;54311;51.726;5.154;2024-01-15T13:00:11;6.07;;;5.57;;
67442;SDS011;54311;51.726;5.154;2024-01-15T13:02:37;6.60;;;6.10;;
67442;SDS011;54311;51.726;5.154;2024-01-15T13:05:07;6.45;;;5.97;;
67442;SDS011;54311;51.726;5.154;2024-01-15T13:07:36;7.13;;;6.60;;
67442;SDS011;54311;51.726;5.154;2024-01-15T13:10:02;6.53;;;5.95;;
67442;SDS011;54311;51.726;5.154;2024-01-15T13:12:27;6.45;;;6.05;;
67442;SDS011;54311;51.726;5.154;2024-01-15T13:14:53;7.72;;;6.40;;
67442;SDS011;54311;51.726;5.154;2024-01-15T13:17:18;7.70;;;6.63;;
67442;SDS011;54311;51.726;5.154;2024-01-15T13:19:45;8.13;;;6.13;;
67442;SDS011;54311;51.726;5.154;2024-01-15T13:22:11;6.25;;;5.85;;
67442;SDS011;54311;51.726;5.154;2024-01-15T13:24:38;12.57;;;6.40;;
67442;SDS011;54311;51.726;5.154;2024-01-15T13:27:04;11.02;;;5.70;;
67442;SDS011;54311;51.726;5.154;2024-01-15T13:29:30;6.28;;;5.60;;
67442;SDS011;54311;51.726;5.154;2024-01-15T13:31:56;7.95;;;6.40;;
67442;SDS011;54311;51.726;5.154;2024-01-15T13:34:22;9.00;;;6.00;;
67442;SDS011;54311;51.726;5.154;2024-01-15T13:36:47;9.63;;;6.82;;
67442;SDS011;54311;51.726;5.154;2024-01-15T13:39:12;10.13;;;6.25;;
67442;SDS011;54311;51.726;5.154;2024-01-15T13:41:38;6.72;;;6.15;;
67442;SDS011;54311;51.726;5.154;2024-01-15T13:44:03;7.60;;;5.35;;
67442;SDS011;54311;51.726;5.154;2024-01-15T13:46:28;8.32;;;5.70;;
67442;SDS011;54311;51.726;5.154;2024-01-15T13:48:57;6.68;;;6.03;;
67442;SDS011;54311;51.726;5.154;2024-01-15T13:51:22;7.05;;;5.82;;
67442;SDS011;54311;51.726;5.154;2024-01-15T13:53:48;9.05;;;5.85;;
67442;SDS011;54311;51.726;5.154;2024-01-15T13:56:14;11.73;;;6.80;;
67442;SDS011;54311;51.726;5.154;2024-01-15T13:58:40;12.88;;;6.00;;
67442;SDS011;54311;51.726;5.154;2024-01-15T14:01:05;17.85;;;5.72;;
67442;SDS011;54311;51.726;5.154;2024-01-15T14:03:31;7.63;;;5.65;;
67442;SDS011;54311;51.726;5.154;2024-01-15T14:05:57;9.10;;;6.25;;
67442;SDS011;54311;51.726;5.154;2024-01-15T14:08:23;9.45;;;5.63;;
67442;SDS011;54311;51.726;5.154;2024-01-15T14:10:48;5.65;;;5.25;;
67442;SDS011;54311;51.726;5.154;2024-01-15T14:13:14;13.32;;;6.78;;
67442;SDS011;54311;51.726;5.154;2024-01-15T14:15:39;10.50;;;5.90;;
67442;SDS011;54311;51.726;5.154;2024-01-15T14:18:05;6.57;;;5.70;;
67442;SDS011;54311;51.726;5.154;2024-01-15T14:20:30;11.55;;;6.88;;
67442;SDS011;54311;51.726;5.154;2024-01-15T14:22:56;10.98;;;7.15;;
67442;SDS011;54311;51.726;5.154;2024-01-15T14:25:21;11.57;;;6.43;;
67442;SDS011;54311;51.726;5.154;2024-01-15T14:27:47;8.32;;;6.40;;
67442;SDS011;54311;51.726;5.154;2024-01-15T14:30:12;8.82;;;5.90;;
67442;SDS011;54311;51.726;5.154;2024-01-15T14:32:38;10.50;;;6.25;;
67442;SDS011;54311;51.726;5.154;2024-01-15T14:35:05;11.23;;;6.75;;
67442;SDS011;54311;51.726;5.154;2024-01-15T14:37:30;10.05;;;6.68;;
67442;SDS011;54311;51.726;5.154;2024-01-15T14:39:56;11.45;;;6.13;;
67442;SDS011;54311;51.726;5.154;2024-01-15T14:42:21;11.18;;;6.20;;
67442;SDS011;54311;51.726;5.154;2024-01-15T14:44:47;10.38;;;5.88;;
67442;SDS011;54311;51.726;5.154;2024-01-15T14:47:12;15.15;;;6.55;;
67442;SDS011;54311;51.726;5.154;2024-01-15T14:49:37;13.32;;;6.82;;